sensor_id;sensor_type;location;lat;lon;timestamp;P1;durP1;ratioP1;P2;durP2;ratioP2
63370;SDS011;49504;48.336;14.472;2023-03-01T00:00:34;4.18;;;2.20;;
63370;SDS011;49504;48.336;14.472;2023-03-01T00:03:55;4.00;;;2.15;;
63370;SDS011;49504;48.336;14.472;2023-03-01T00:07:18;3.67;;;2.28;;
63370;SDS011;49504;48.336;14.472;2023-03-01T00:10:41;4.43;;;2.53;;
63370;SDS011;49504;48.336;14.472;2023-03-01T00:14:02;4.47;;;2.40;;
63370;SDS011;49504;48.336;14.472;2023-03-01T00:17:24;3.95;;;2.05;;
63370;SDS011;49504;48.336;14.472;2023-03-01T00:20:48;4.05;;;2.25;;
63370;SDS011;49504;48.336;14.472;2023-03-01T00:24:10;4.13;;;2.42;;
63370;SDS011;49504;48.336;14.472;2023-03-01T00:27:33;3.92;;;2.08;;
63370;SDS011;49504;48.336;14.472;2023-03-01T00:30:54;3.78;;;1.98;;
63370;SDS011;49504;48.336;14.472;2023-03-01T00:34:15;4.22;;;2.58;;
63370;SDS011;49504;48.336;14.472;2023-03-01T00:37:37;4.35;;;2.40;;
63370;SDS011;49504;48.336;14.472;2023-03-01T00:41:02;4.55;;;2.50;;
63370;SDS011;49504;48.336;14.472;2023-03-01T00:45:04;4.40;;;2.55;;
63370;SDS011;49504;48.336;14.472;2023-03-01T00:48:27;4.57;;;2.42;;
63370;SDS011;49504;48.336;14.472;2023-03-01T00:51:48;3.97;;;2.55;;
63370;SDS011;49504;48.336;14.472;2023-03-01T00:55:10;4.28;;;2.40;;
63370;SDS011;49504;48.336;14.472;2023-03-01T00:58:31;4.13;;;2.60;;
63370;SDS011;49504;48.336;14.472;2023-03-01T01:01:54;3.97;;;2.05;;
63370;SDS011;49504;48.336;14.472;2023-03-01T01:05:16;4.40;;;2.28;;
63370;SDS011;49504;48.336;14.472;2023-03-01T01:08:38;4.07;;;2.30;;
63370;SDS011;49504;48.336;14.472;2023-03-01T01:11:59;4.20;;;2.35;;
63370;SDS011;49504;48.336;14.472;2023-03-01T01:15:20;4.35;;;2.28;;
63370;SDS011;49504;48.336;14.472;2023-03-01T01:18:43;3.97;;;2.33;;
63370;SDS011;49504;48.336;14.472;2023-03-01T01:22:04;4.00;;;2.05;;
63370;SDS011;49504;48.336;14.472;2023-03-01T01:25:25;4.82;;;2.17;;
63370;SDS011;49504;48.336;14.472;2023-03-01T01:28:47;3.85;;;2.13;;
63370;SDS011;49504;48.336;14.472;2023-03-01T01:32:08;4.47;;;2.40;;
63370;SDS011;49504;48.336;14.472;2023-03-01T01:35:31;4.97;;;2.10;;
63370;SDS011;49504;48.336;14.472;2023-03-01T01:38:52;4.03;;;2.30;;
63370;SDS011;49504;48.336;14.472;2023-03-01T01:42:14;4.43;;;2.50;;
63370;SDS011;49504;48.336;14.472;2023-03-01T01:45:37;3.92;;;2.08;;
63370;SDS011;49504;48.336;14.472;2023-03-01T01:48:59;4.10;;;2.28;;
63370;SDS011;49504;48.336;14.472;2023-03-01T01:52:25;3.50;;;1.92;;
63370;SDS011;49504;48.336;14.472;2023-03-01T01:55:53;3.97;;;2.15;;
63370;SDS011;49504;48.336;14.472;2023-03-01T01:59:18;4.20;;;2.10;;
63370;SDS011;49504;48.336;14.472;2023-03-01T02:02:39;3.53;;;1.70;;
63370;SDS011;49504;48.336;14.472;2023-03-01T02:06:03;3.92;;;2.17;;
63370;SDS011;49504;48.336;14.472;2023-03-01T02:09:32;3.92;;;2.00;;
63370;SDS011;49504;48.336;14.472;2023-03-01T02:12:55;4.47;;;2.55;;
63370;SDS011;49504;48.336;14.472;2023-03-01T02:16:16;4.22;;;2.45;;
63370;SDS011;49504;48.336;14.472;2023-03-01T02:19:41;4.07;;;2.15;;
63370;SDS011;49504;48.336;14.472;2023-03-01T02:23:16;4.30;;;2.55;;
63370;SDS011;49504;48.336;14.472;2023-03-01T02:26:40;3.72;;;2.15;;
63370;SDS011;49504;48.336;14.472;2023-03-01T02:30:07;4.22;;;2.30;;
63370;SDS011;49504;48.336;14.472;2023-03-01T02:33:31;4.45;;;2.70;;
63370;SDS011;49504;48.336;14.472;2023-03-01T02:36:56;4.80;;;2.38;;
63370;SDS011;49504;48.336;14.472;2023-03-01T02:40:21;4.00;;;2.30;;
63370;SDS011;49504;48.336;14.472;2023-03-01T02:43:42;4.25;;;2.45;;
63370;SDS011;49504;48.336;14.472;2023-03-01T02:47:05;4.18;;;2.33;;
63370;SDS011;49504;48.336;14.472;2023-03-01T02:50:35;4.45;;;2.50;;
63370;SDS011;49504;48.336;14.472;2023-03-01T02:54:15;4.38;;;2.40;;
63370;SDS011;49504;48.336;14.472;2023-03-01T02:57:44;4.05;;;2.63;;
63370;SDS011;49504;48.336;14.472;2023-03-01T03:01:38;4.20;;;2.40;;
63370;SDS011;49504;48.336;14.472;2023-03-01T03:05:02;4.30;;;2.53;;
63370;SDS011;49504;48.336;14.472;2023-03-01T03:08:27;4.32;;;2.42;;
63370;SDS011;49504;48.336;14.472;2023-03-01T03:11:48;4.53;;;2.45;;
63370;SDS011;49504;48.336;14.472;2023-03-01T03:15:10;4.07;;;2.58;;
63370;SDS011;49504;48.336;14.472;2023-03-01T03:18:32;4.72;;;2.80;;
63370;SDS011;49504;48.336;14.472;2023-03-01T03:21:53;4.15;;;1.98;;
63370;SDS011;49504;48.336;14.472;2023-03-01T03:25:15;4.30;;;2.60;;
63370;SDS011;49504;48.336;14.472;2023-03-01T03:28:37;5.03;;;2.63;;
63370;SDS011;49504;48.336;14.472;2023-03-01T03:31:58;4.28;;;2.22;;
63370;SDS011;49504;48.336;14.472;2023-03-01T03:35:22;4.35;;;2.42;;
63370;SDS011;49504;48.336;14.472;2023-03-01T03:38:45;4.05;;;2.25;;
63370;SDS011;49504;48.336;14.472;2023-03-01T03:42:07;4.82;;;2.60;;
63370;SDS011;49504;48.336;14.472;2023-03-01T03:45:28;4.10;;;2.40;;
63370;SDS011;49504;48.336;14.472;2023-03-01T03:48:49;4.25;;;2.28;;
63370;SDS011;49504;48.336;14.472;2023-03-01T03:52:12;4.25;;;2.53;;
63370;SDS011;49504;48.336;14.472;2023-03-01T03:55:33;4.65;;;2.50;;
63370;SDS011;49504;48.336;14.472;2023-03-01T03:58:55;4.40;;;2.60;;
63370;SDS011;49504;48.336;14.472;2023-03-01T04:02:16;4.15;;;2.28;;
63370;SDS011;49504;48.336;14.472;2023-03-01T04:05:37;4.47;;;2.33;;
63370;SDS011;49504;48.336;14.472;2023-03-01T04:09:01;4.22;;;2.33;;
63370;SDS011;49504;48.336;14.472;2023-03-01T04:12:23;4.53;;;2.67;;
63370;SDS011;49504;48.336;14.472;2023-03-01T04:15:44;4.35;;;2.38;;
63370;SDS011;49504;48.336;14.472;2023-03-01T04:19:05;4.13;;;2.40;;
63370;SDS011;49504;48.336;14.472;2023-03-01T04:22:26;4.38;;;2.60;;
63370;SDS011;49504;48.336;14.472;2023-03-01T04:25:49;4.03;;;2.42;;
63370;SDS011;49504;48.336;14.472;2023-03-01T04:29:12;4.75;;;2.60;;
63370;SDS011;49504;48.336;14.472;2023-03-01T04:32:33;4.75;;;2.60;;
63370;SDS011;49504;48.336;14.472;2023-03-01T04:35:54;4.82;;;2.60;;
63370;SDS011;49504;48.336;14.472;2023-03-01T04:39:15;4.32;;;2.30;;
63370;SDS011;49504;48.336;14.472;2023-03-01T04:42:38;4.93;;;2.50;;
63370;SDS011;49504;48.336;14.472;2023-03-01T04:46:00;4.15;;;2.63;;
63370;SDS011;49504;48.336;14.472;2023-03-01T04:49:22;4.68;;;2.90;;
63370;SDS011;49504;48.336;14.472;2023-03-01T04:52:43;4.30;;;2.40;;
63370;SDS011;49504;48.336;14.472;2023-03-01T04:56:05;4.35;;;2.53;;
63370;SDS011;49504;48.336;14.472;2023-03-01T04:59:28;4.57;;;2.90;;
63370;SDS011;49504;48.336;14.472;2023-03-01T05:05:22;4.32;;;2.53;;
63370;SDS011;49504;48.336;14.472;2023-03-01T05:08:46;4.97;;;2.83;;
63370;SDS011;49504;48.336;14.472;2023-03-01T05:12:07;4.65;;;2.95;;
63370;SDS011;49504;48.336;14.472;2023-03-01T05:15:29;4.68;;;2.90;;
63370;SDS011;49504;48.336;14.472;2023-03-01T05:18:51;6.60;;;3.28;;
63370;SDS011;49504;48.336;14.472;2023-03-01T05:22:14;14.35;;;5.15;;
63370;SDS011;49504;48.336;14.472;2023-03-01T05:25:35;7.13;;;3.88;;
63370;SDS011;49504;48.336;14.472;2023-03-01T05:28:56;21.67;;;5.53;;
63370;SDS011;49504;48.336;14.472;2023-03-01T05:32:17;7.38;;;4.15;;
63370;SDS011;49504;48.336;14.472;2023-03-01T05:35:39;10.63;;;4.70;;
63370;SDS011;49504;48.336;14.472;2023-03-01T05:39:02;9.25;;;5.13;;
63370;SDS011;49504;48.336;14.472;2023-03-01T05:42:23;7.75;;;4.78;;
63370;SDS011;49504;48.336;14.472;2023-03-01T05:45:44;8.35;;;4.45;;
63370;SDS011;49504;48.336;14.472;2023-03-01T05:49:05;9.00;;;4.00;;
63370;SDS011;49504;48.336;14.472;2023-03-01T05:52:29;7.55;;;3.92;;
63370;SDS011;49504;48.336;14.472;2023-03-01T05:55:53;12.50;;;4.28;;
63370;SDS011;49504;48.336;14.472;2023-03-01T05:59:14;10.88;;;4.53;;
63370;SDS011;49504;48.336;14.472;2023-03-01T06:02:35;9.25;;;4.00;;
63370;SDS011;49504;48.336;14.472;2023-03-01T06:05:56;6.97;;;3.88;;
63370;SDS011;49504;48.336;14.472;2023-03-01T06:09:18;9.20;;;3.90;;
63370;SDS011;49504;48.336;14.472;2023-03-01T06:13:32;7.05;;;4.55;;
63370;SDS011;49504;48.336;14.472;2023-03-01T06:16:54;8.60;;;3.83;;
63370;SDS011;49504;48.336;14.472;2023-03-01T06:20:15;7.10;;;4.45;;
63370;SDS011;49504;48.336;14.472;2023-03-01T06:23:39;8.88;;;4.30;;
63370;SDS011;49504;48.336;14.472;2023-03-01T06:27:00;7.60;;;4.43;;
63370;SDS011;49504;48.336;14.472;2023-03-01T06:30:23;8.40;;;3.67;;
63370;SDS011;49504;48.336;14.472;2023-03-01T06:33:46;8.10;;;4.35;;
63370;SDS011;49504;48.336;14.472;2023-03-01T06:37:07;8.20;;;4.50;;
63370;SDS011;49504;48.336;14.472;2023-03-01T06:40:28;8.63;;;4.30;;
63370;SDS011;49504;48.336;14.472;2023-03-01T06:43:50;8.13;;;4.25;;
63370;SDS011;49504;48.336;14.472;2023-03-01T06:47:13;9.25;;;4.10;;
63370;SDS011;49504;48.336;14.472;2023-03-01T06:50:34;11.60;;;4.28;;
63370;SDS011;49504;48.336;14.472;2023-03-01T06:53:55;6.68;;;4.22;;
63370;SDS011;49504;48.336;14.472;2023-03-01T06:57:17;7.65;;;4.22;;
63370;SDS011;49504;48.336;14.472;2023-03-01T07:00:38;8.60;;;4.70;;
63370;SDS011;49504;48.336;14.472;2023-03-01T07:04:01;6.93;;;4.18;;
63370;SDS011;49504;48.336;14.472;2023-03-01T07:07:22;7.75;;;4.47;;
63370;SDS011;49504;48.336;14.472;2023-03-01T07:10:44;6.75;;;4.10;;
63370;SDS011;49504;48.336;14.472;2023-03-01T07:14:05;8.35;;;4.40;;
63370;SDS011;49504;48.336;14.472;2023-03-01T07:17:26;7.82;;;4.43;;
63370;SDS011;49504;48.336;14.472;2023-03-01T07:20:49;7.35;;;4.28;;
63370;SDS011;49504;48.336;14.472;2023-03-01T07:24:10;7.00;;;4.30;;
63370;SDS011;49504;48.336;14.472;2023-03-01T07:27:31;6.63;;;3.95;;
63370;SDS011;49504;48.336;14.472;2023-03-01T07:30:52;6.50;;;3.67;;
63370;SDS011;49504;48.336;14.472;2023-03-01T07:34:14;6.55;;;3.72;;
63370;SDS011;49504;48.336;14.472;2023-03-01T07:37:36;7.45;;;3.92;;
63370;SDS011;49504;48.336;14.472;2023-03-01T07:40:57;7.47;;;3.88;;
63370;SDS011;49504;48.336;14.472;2023-03-01T07:44:20;6.90;;;3.88;;
63370;SDS011;49504;48.336;14.472;2023-03-01T07:47:41;7.28;;;3.65;;
63370;SDS011;49504;48.336;14.472;2023-03-01T07:51:03;6.43;;;3.90;;
63370;SDS011;49504;48.336;14.472;2023-03-01T07:54:28;7.50;;;3.63;;
63370;SDS011;49504;48.336;14.472;2023-03-01T07:57:49;6.10;;;4.00;;
63370;SDS011;49504;48.336;14.472;2023-03-01T08:01:11;6.97;;;4.00;;
63370;SDS011;49504;48.336;14.472;2023-03-01T08:04:34;6.43;;;3.65;;
63370;SDS011;49504;48.336;14.472;2023-03-01T08:07:55;7.25;;;3.80;;
63370;SDS011;49504;48.336;14.472;2023-03-01T08:11:17;5.68;;;3.42;;
63370;SDS011;49504;48.336;14.472;2023-03-01T08:15:35;6.07;;;3.70;;
63370;SDS011;49504;48.336;14.472;2023-03-01T08:18:56;5.63;;;3.70;;
63370;SDS011;49504;48.336;14.472;2023-03-01T08:27:14;6.00;;;3.67;;
63370;SDS011;49504;48.336;14.472;2023-03-01T08:30:35;6.20;;;3.65;;
63370;SDS011;49504;48.336;14.472;2023-03-01T08:33:57;5.80;;;3.65;;
63370;SDS011;49504;48.336;14.472;2023-03-01T08:37:20;5.57;;;3.75;;
63370;SDS011;49504;48.336;14.472;2023-03-01T08:40:41;6.03;;;3.45;;
63370;SDS011;49504;48.336;14.472;2023-03-01T08:46:06;5.82;;;3.20;;
63370;SDS011;49504;48.336;14.472;2023-03-01T08:49:27;6.50;;;3.83;;
63370;SDS011;49504;48.336;14.472;2023-03-01T08:52:48;6.47;;;3.35;;
63370;SDS011;49504;48.336;14.472;2023-03-01T08:56:09;5.35;;;3.35;;
63370;SDS011;49504;48.336;14.472;2023-03-01T08:59:31;5.30;;;3.00;;
63370;SDS011;49504;48.336;14.472;2023-03-01T09:02:53;6.60;;;3.08;;
63370;SDS011;49504;48.336;14.472;2023-03-01T09:06:15;6.32;;;3.40;;
63370;SDS011;49504;48.336;14.472;2023-03-01T09:09:36;5.43;;;3.30;;
63370;SDS011;49504;48.336;14.472;2023-03-01T09:12:58;5.28;;;3.53;;
63370;SDS011;49504;48.336;14.472;2023-03-01T09:16:19;5.53;;;3.60;;
63370;SDS011;49504;48.336;14.472;2023-03-01T09:19:43;5.78;;;3.45;;
63370;SDS011;49504;48.336;14.472;2023-03-01T09:23:04;6.78;;;3.78;;
63370;SDS011;49504;48.336;14.472;2023-03-01T09:26:25;5.60;;;3.33;;
63370;SDS011;49504;48.336;14.472;2023-03-01T09:29:46;6.00;;;3.40;;
63370;SDS011;49504;48.336;14.472;2023-03-01T09:33:07;5.43;;;3.25;;
63370;SDS011;49504;48.336;14.472;2023-03-01T09:36:30;5.90;;;3.42;;
63370;SDS011;49504;48.336;14.472;2023-03-01T09:39:51;5.10;;;2.95;;
63370;SDS011;49504;48.336;14.472;2023-03-01T09:43:15;6.30;;;3.22;;
63370;SDS011;49504;48.336;14.472;2023-03-01T09:46:45;6.20;;;3.30;;
63370;SDS011;49504;48.336;14.472;2023-03-01T09:50:09;5.47;;;3.42;;
63370;SDS011;49504;48.336;14.472;2023-03-01T09:53:35;4.88;;;3.08;;
63370;SDS011;49504;48.336;14.472;2023-03-01T09:57:06;6.28;;;3.65;;
63370;SDS011;49504;48.336;14.472;2023-03-01T10:00:39;5.03;;;2.90;;
63370;SDS011;49504;48.336;14.472;2023-03-01T10:04:09;5.47;;;3.25;;
63370;SDS011;49504;48.336;14.472;2023-03-01T10:07:45;5.20;;;3.05;;
63370;SDS011;49504;48.336;14.472;2023-03-01T10:11:21;6.28;;;3.50;;
63370;SDS011;49504;48.336;14.472;2023-03-01T10:17:37;5.43;;;3.42;;
63370;SDS011;49504;48.336;14.472;2023-03-01T10:21:07;5.53;;;3.35;;
63370;SDS011;49504;48.336;14.472;2023-03-01T10:24:35;5.75;;;3.28;;
63370;SDS011;49504;48.336;14.472;2023-03-01T10:27:59;5.60;;;3.25;;
63370;SDS011;49504;48.336;14.472;2023-03-01T10:31:30;5.28;;;3.03;;
63370;SDS011;49504;48.336;14.472;2023-03-01T10:35:01;5.47;;;2.97;;
63370;SDS011;49504;48.336;14.472;2023-03-01T10:42:19;4.90;;;2.78;;
63370;SDS011;49504;48.336;14.472;2023-03-01T10:45:47;5.68;;;3.10;;
63370;SDS011;49504;48.336;14.472;2023-03-01T10:49:13;4.78;;;2.90;;
63370;SDS011;49504;48.336;14.472;2023-03-01T10:52:40;5.82;;;3.25;;
63370;SDS011;49504;48.336;14.472;2023-03-01T10:56:03;5.10;;;2.88;;
63370;SDS011;49504;48.336;14.472;2023-03-01T10:59:27;4.57;;;2.60;;
63370;SDS011;49504;48.336;14.472;2023-03-01T11:05:22;4.95;;;2.72;;
63370;SDS011;49504;48.336;14.472;2023-03-01T11:11:40;4.40;;;2.60;;
63370;SDS011;49504;48.336;14.472;2023-03-01T11:15:02;4.07;;;2.22;;
63370;SDS011;49504;48.336;14.472;2023-03-01T11:18:24;4.65;;;2.70;;
63370;SDS011;49504;48.336;14.472;2023-03-01T11:21:49;4.70;;;2.70;;
63370;SDS011;49504;48.336;14.472;2023-03-01T11:25:17;4.90;;;2.58;;
63370;SDS011;49504;48.336;14.472;2023-03-01T11:29:15;6.35;;;2.55;;
63370;SDS011;49504;48.336;14.472;2023-03-01T11:32:47;4.50;;;2.55;;
63370;SDS011;49504;48.336;14.472;2023-03-01T11:36:19;6.30;;;2.80;;
63370;SDS011;49504;48.336;14.472;2023-03-01T11:39:54;5.50;;;2.70;;
63370;SDS011;49504;48.336;14.472;2023-03-01T11:43:26;5.15;;;2.90;;
63370;SDS011;49504;48.336;14.472;2023-03-01T11:47:07;5.22;;;3.00;;
63370;SDS011;49504;48.336;14.472;2023-03-01T11:50:42;4.70;;;2.35;;
63370;SDS011;49504;48.336;14.472;2023-03-01T11:54:11;4.43;;;2.72;;
63370;SDS011;49504;48.336;14.472;2023-03-01T11:57:49;4.40;;;2.38;;
63370;SDS011;49504;48.336;14.472;2023-03-01T12:01:35;4.63;;;2.42;;
63370;SDS011;49504;48.336;14.472;2023-03-01T12:05:13;4.95;;;2.80;;
63370;SDS011;49504;48.336;14.472;2023-03-01T12:08:45;4.93;;;2.85;;
63370;SDS011;49504;48.336;14.472;2023-03-01T12:12:30;5.03;;;2.45;;
63370;SDS011;49504;48.336;14.472;2023-03-01T12:16:07;5.00;;;3.00;;
63370;SDS011;49504;48.336;14.472;2023-03-01T12:19:49;4.60;;;2.70;;
63370;SDS011;49504;48.336;14.472;2023-03-01T12:23:33;4.45;;;2.50;;
63370;SDS011;49504;48.336;14.472;2023-03-01T12:27:41;3.97;;;2.20;;
63370;SDS011;49504;48.336;14.472;2023-03-01T12:31:32;4.45;;;2.33;;
63370;SDS011;49504;48.336;14.472;2023-03-01T12:35:08;5.30;;;2.35;;
63370;SDS011;49504;48.336;14.472;2023-03-01T12:38:55;4.80;;;2.42;;
63370;SDS011;49504;48.336;14.472;2023-03-01T12:42:35;4.85;;;2.70;;
63370;SDS011;49504;48.336;14.472;2023-03-01T12:46:07;5.05;;;2.42;;
63370;SDS011;49504;48.336;14.472;2023-03-01T12:49:41;4.70;;;2.50;;
63370;SDS011;49504;48.336;14.472;2023-03-01T12:53:15;4.97;;;2.30;;
63370;SDS011;49504;48.336;14.472;2023-03-01T12:56:46;5.32;;;2.72;;
63370;SDS011;49504;48.336;14.472;2023-03-01T13:00:11;5.68;;;3.17;;
63370;SDS011;49504;48.336;14.472;2023-03-01T13:03:57;13.80;;;3.97;;
63370;SDS011;49504;48.336;14.472;2023-03-01T13:07:34;7.57;;;3.40;;
63370;SDS011;49504;48.336;14.472;2023-03-01T13:12:43;5.95;;;3.25;;
63370;SDS011;49504;48.336;14.472;2023-03-01T13:16:20;5.85;;;2.88;;
63370;SDS011;49504;48.336;14.472;2023-03-01T13:19:59;6.18;;;3.10;;
63370;SDS011;49504;48.336;14.472;2023-03-01T13:23:24;7.07;;;3.28;;
63370;SDS011;49504;48.336;14.472;2023-03-01T13:30:43;7.43;;;3.20;;
63370;SDS011;49504;48.336;14.472;2023-03-01T13:34:04;5.78;;;2.75;;
63370;SDS011;49504;48.336;14.472;2023-03-01T13:41:58;5.57;;;3.10;;
63370;SDS011;49504;48.336;14.472;2023-03-01T13:45:21;7.15;;;2.65;;
63370;SDS011;49504;48.336;14.472;2023-03-01T13:48:50;6.55;;;2.97;;
63370;SDS011;49504;48.336;14.472;2023-03-01T13:56:07;5.70;;;2.42;;
63370;SDS011;49504;48.336;14.472;2023-03-01T13:59:32;5.78;;;2.70;;
63370;SDS011;49504;48.336;14.472;2023-03-01T14:03:01;6.30;;;2.92;;
63370;SDS011;49504;48.336;14.472;2023-03-01T14:06:28;5.07;;;2.85;;
63370;SDS011;49504;48.336;14.472;2023-03-01T14:09:53;5.50;;;2.80;;
63370;SDS011;49504;48.336;14.472;2023-03-01T14:13:20;5.05;;;2.65;;
63370;SDS011;49504;48.336;14.472;2023-03-01T14:16:54;5.20;;;2.70;;
63370;SDS011;49504;48.336;14.472;2023-03-01T14:20:26;6.32;;;2.72;;
63370;SDS011;49504;48.336;14.472;2023-03-01T14:23:52;5.00;;;2.60;;
63370;SDS011;49504;48.336;14.472;2023-03-01T14:27:14;5.55;;;2.63;;
63370;SDS011;49504;48.336;14.472;2023-03-01T14:30:38;4.65;;;2.45;;
63370;SDS011;49504;48.336;14.472;2023-03-01T14:34:03;4.80;;;2.47;;
63370;SDS011;49504;48.336;14.472;2023-03-01T14:37:26;4.95;;;2.83;;
63370;SDS011;49504;48.336;14.472;2023-03-01T14:40:53;4.65;;;2.53;;
63370;SDS011;49504;48.336;14.472;2023-03-01T14:44:19;5.43;;;2.55;;
63370;SDS011;49504;48.336;14.472;2023-03-01T14:47:43;5.32;;;2.63;;
63370;SDS011;49504;48.336;14.472;2023-03-01T14:51:06;5.85;;;2.85;;
63370;SDS011;49504;48.336;14.472;2023-03-01T14:54:28;6.78;;;2.45;;
63370;SDS011;49504;48.336;14.472;2023-03-01T14:57:58;4.10;;;2.25;;
63370;SDS011;49504;48.336;14.472;2023-03-01T15:01:19;4.18;;;2.20;;
63370;SDS011;49504;48.336;14.472;2023-03-01T15:04:41;4.72;;;2.50;;
63370;SDS011;49504;48.336;14.472;2023-03-01T15:08:03;4.78;;;2.10;;
63370;SDS011;49504;48.336;14.472;2023-03-01T15:11:27;5.85;;;2.58;;
63370;SDS011;49504;48.336;14.472;2023-03-01T15:14:51;5.35;;;2.60;;
63370;SDS011;49504;48.336;14.472;2023-03-01T15:18:14;5.15;;;2.60;;
63370;SDS011;49504;48.336;14.472;2023-03-01T15:21:38;5.45;;;2.58;;
63370;SDS011;49504;48.336;14.472;2023-03-01T15:25:00;4.65;;;2.75;;
63370;SDS011;49504;48.336;14.472;2023-03-01T15:28:22;4.38;;;2.50;;
63370;SDS011;49504;48.336;14.472;2023-03-01T15:31:55;5.35;;;2.53;;
63370;SDS011;49504;48.336;14.472;2023-03-01T15:35:38;4.80;;;2.67;;
63370;SDS011;49504;48.336;14.472;2023-03-01T15:39:02;4.75;;;2.38;;
63370;SDS011;49504;48.336;14.472;2023-03-01T15:42:36;4.75;;;2.33;;
63370;SDS011;49504;48.336;14.472;2023-03-01T15:49:26;4.68;;;2.60;;
63370;SDS011;49504;48.336;14.472;2023-03-01T15:52:56;5.43;;;2.83;;
63370;SDS011;49504;48.336;14.472;2023-03-01T15:56:19;5.68;;;2.95;;
63370;SDS011;49504;48.336;14.472;2023-03-01T15:59:40;4.47;;;2.25;;
63370;SDS011;49504;48.336;14.472;2023-03-01T16:03:01;5.40;;;2.80;;
63370;SDS011;49504;48.336;14.472;2023-03-01T16:06:24;4.55;;;2.50;;
63370;SDS011;49504;48.336;14.472;2023-03-01T16:09:45;5.05;;;2.60;;
63370;SDS011;49504;48.336;14.472;2023-03-01T16:13:07;5.38;;;2.70;;
63370;SDS011;49504;48.336;14.472;2023-03-01T16:17:29;5.35;;;2.65;;
63370;SDS011;49504;48.336;14.472;2023-03-01T16:20:50;5.13;;;2.88;;
63370;SDS011;49504;48.336;14.472;2023-03-01T16:24:11;4.68;;;2.92;;
63370;SDS011;49504;48.336;14.472;2023-03-01T16:27:33;5.30;;;2.85;;
63370;SDS011;49504;48.336;14.472;2023-03-01T16:30:54;5.10;;;2.90;;
63370;SDS011;49504;48.336;14.472;2023-03-01T16:34:16;6.75;;;3.60;;
63370;SDS011;49504;48.336;14.472;2023-03-01T16:37:38;5.78;;;3.10;;
63370;SDS011;49504;48.336;14.472;2023-03-01T16:41:00;5.60;;;2.92;;
63370;SDS011;49504;48.336;14.472;2023-03-01T16:44:21;4.95;;;2.97;;
63370;SDS011;49504;48.336;14.472;2023-03-01T16:47:42;6.05;;;3.25;;
63370;SDS011;49504;48.336;14.472;2023-03-01T16:51:06;5.90;;;3.20;;
63370;SDS011;49504;48.336;14.472;2023-03-01T16:54:28;5.28;;;3.05;;
63370;SDS011;49504;48.336;14.472;2023-03-01T16:57:49;8.48;;;3.95;;
63370;SDS011;49504;48.336;14.472;2023-03-01T17:01:11;6.75;;;3.22;;
63370;SDS011;49504;48.336;14.472;2023-03-01T17:04:34;6.13;;;2.85;;
63370;SDS011;49504;48.336;14.472;2023-03-01T17:07:57;5.57;;;3.15;;
63370;SDS011;49504;48.336;14.472;2023-03-01T17:11:19;6.47;;;3.15;;
63370;SDS011;49504;48.336;14.472;2023-03-01T17:14:40;5.97;;;3.35;;
63370;SDS011;49504;48.336;14.472;2023-03-01T17:19:04;5.53;;;3.30;;
63370;SDS011;49504;48.336;14.472;2023-03-01T17:22:26;6.50;;;3.40;;
63370;SDS011;49504;48.336;14.472;2023-03-01T17:25:47;6.80;;;3.45;;
63370;SDS011;49504;48.336;14.472;2023-03-01T17:29:08;6.88;;;3.08;;
63370;SDS011;49504;48.336;14.472;2023-03-01T17:32:30;5.65;;;2.88;;
63370;SDS011;49504;48.336;14.472;2023-03-01T17:35:52;5.75;;;3.05;;
63370;SDS011;49504;48.336;14.472;2023-03-01T17:39:13;6.15;;;2.90;;
63370;SDS011;49504;48.336;14.472;2023-03-01T17:42:35;6.53;;;3.53;;
63370;SDS011;49504;48.336;14.472;2023-03-01T17:48:38;4.57;;;2.53;;
63370;SDS011;49504;48.336;14.472;2023-03-01T17:51:59;5.95;;;2.88;;
63370;SDS011;49504;48.336;14.472;2023-03-01T17:55:20;5.65;;;3.10;;
63370;SDS011;49504;48.336;14.472;2023-03-01T17:58:45;5.75;;;2.75;;
63370;SDS011;49504;48.336;14.472;2023-03-01T18:02:06;7.28;;;3.03;;
63370;SDS011;49504;48.336;14.472;2023-03-01T18:05:33;6.53;;;3.13;;
63370;SDS011;49504;48.336;14.472;2023-03-01T18:08:55;5.82;;;3.15;;
63370;SDS011;49504;48.336;14.472;2023-03-01T18:12:16;5.93;;;3.38;;
63370;SDS011;49504;48.336;14.472;2023-03-01T18:16:59;6.18;;;3.80;;
63370;SDS011;49504;48.336;14.472;2023-03-01T18:20:22;6.60;;;3.70;;
63370;SDS011;49504;48.336;14.472;2023-03-01T18:23:43;6.28;;;3.13;;
63370;SDS011;49504;48.336;14.472;2023-03-01T18:27:04;7.00;;;3.42;;
63370;SDS011;49504;48.336;14.472;2023-03-01T18:30:26;7.35;;;3.75;;
63370;SDS011;49504;48.336;14.472;2023-03-01T18:33:50;5.30;;;3.25;;
63370;SDS011;49504;48.336;14.472;2023-03-01T18:37:13;5.95;;;3.25;;
63370;SDS011;49504;48.336;14.472;2023-03-01T18:40:34;5.93;;;3.78;;
63370;SDS011;49504;48.336;14.472;2023-03-01T18:43:55;6.10;;;4.05;;
63370;SDS011;49504;48.336;14.472;2023-03-01T18:47:16;7.00;;;3.97;;
63370;SDS011;49504;48.336;14.472;2023-03-01T18:50:39;7.75;;;4.05;;
63370;SDS011;49504;48.336;14.472;2023-03-01T18:54:02;7.03;;;3.67;;
63370;SDS011;49504;48.336;14.472;2023-03-01T18:57:23;6.75;;;4.25;;
63370;SDS011;49504;48.336;14.472;2023-03-01T19:00:44;7.05;;;3.90;;
63370;SDS011;49504;48.336;14.472;2023-03-01T19:04:06;6.70;;;4.43;;
63370;SDS011;49504;48.336;14.472;2023-03-01T19:07:28;8.27;;;4.97;;
63370;SDS011;49504;48.336;14.472;2023-03-01T19:10:53;8.63;;;4.57;;
63370;SDS011;49504;48.336;14.472;2023-03-01T19:14:15;7.45;;;4.88;;
63370;SDS011;49504;48.336;14.472;2023-03-01T19:17:36;6.93;;;4.63;;
63370;SDS011;49504;48.336;14.472;2023-03-01T19:24:03;7.47;;;5.10;;
63370;SDS011;49504;48.336;14.472;2023-03-01T19:27:25;6.50;;;4.03;;
63370;SDS011;49504;48.336;14.472;2023-03-01T19:31:07;6.50;;;4.57;;
63370;SDS011;49504;48.336;14.472;2023-03-01T19:34:31;7.03;;;4.78;;
63370;SDS011;49504;48.336;14.472;2023-03-01T19:37:52;9.20;;;4.72;;
63370;SDS011;49504;48.336;14.472;2023-03-01T19:41:14;7.13;;;4.53;;
63370;SDS011;49504;48.336;14.472;2023-03-01T19:44:37;7.85;;;4.97;;
63370;SDS011;49504;48.336;14.472;2023-03-01T19:48:00;6.65;;;4.60;;
63370;SDS011;49504;48.336;14.472;2023-03-01T19:51:21;7.55;;;4.88;;
63370;SDS011;49504;48.336;14.472;2023-03-01T19:55:37;6.78;;;4.57;;
63370;SDS011;49504;48.336;14.472;2023-03-01T19:58:59;7.25;;;5.05;;
63370;SDS011;49504;48.336;14.472;2023-03-01T20:02:20;8.10;;;5.20;;
63370;SDS011;49504;48.336;14.472;2023-03-01T20:05:42;6.30;;;4.30;;
63370;SDS011;49504;48.336;14.472;2023-03-01T20:09:03;7.78;;;4.63;;
63370;SDS011;49504;48.336;14.472;2023-03-01T20:13:30;7.15;;;4.57;;
63370;SDS011;49504;48.336;14.472;2023-03-01T20:16:52;7.22;;;4.57;;
63370;SDS011;49504;48.336;14.472;2023-03-01T20:20:13;6.50;;;4.53;;
63370;SDS011;49504;48.336;14.472;2023-03-01T20:23:36;7.38;;;4.57;;
63370;SDS011;49504;48.336;14.472;2023-03-01T20:26:57;6.50;;;4.55;;
63370;SDS011;49504;48.336;14.472;2023-03-01T20:30:20;6.93;;;4.55;;
63370;SDS011;49504;48.336;14.472;2023-03-01T20:33:41;8.18;;;5.00;;
63370;SDS011;49504;48.336;14.472;2023-03-01T20:37:03;7.40;;;4.57;;
63370;SDS011;49504;48.336;14.472;2023-03-01T20:40:24;8.18;;;4.82;;
63370;SDS011;49504;48.336;14.472;2023-03-01T20:43:45;7.20;;;4.78;;
63370;SDS011;49504;48.336;14.472;2023-03-01T20:47:08;7.60;;;4.63;;
63370;SDS011;49504;48.336;14.472;2023-03-01T20:50:29;7.57;;;4.30;;
63370;SDS011;49504;48.336;14.472;2023-03-01T20:54:22;6.82;;;4.43;;
63370;SDS011;49504;48.336;14.472;2023-03-01T20:57:43;6.75;;;4.32;;
63370;SDS011;49504;48.336;14.472;2023-03-01T21:01:07;7.22;;;4.07;;
63370;SDS011;49504;48.336;14.472;2023-03-01T21:04:31;5.65;;;3.83;;